createdAt,value
2019-02-03T00:04:41.048Z,62.83
2019-02-03T00:07:11.791Z,62.59
2019-02-03T00:09:45.863Z,62.77
2019-02-03T00:12:14.471Z,62.87
2019-02-03T00:14:50.489Z,62.50
2019-02-03T00:17:17.985Z,62.67
2019-02-03T00:19:45.220Z,62.30
2019-02-03T00:22:13.403Z,62.14
2019-02-03T00:24:41.369Z,63.35
2019-02-03T00:27:08.542Z,63.56
2019-02-03T00:29:35.776Z,63.98
2019-02-03T00:32:02.504Z,63.60
2019-02-03T00:34:29.979Z,63.38
2019-02-03T00:36:58.138Z,63.79
2019-02-03T00:39:26.711Z,63.56
2019-02-03T00:41:54.721Z,63.14
2019-02-03T00:44:21.565Z,63.14
2019-02-03T00:46:49.344Z,63.06
2019-02-03T00:49:16.179Z,62.59
2019-02-03T00:51:43.981Z,62.78
2019-02-03T00:54:11.095Z,63.04
2019-02-03T00:56:37.884Z,62.82
2019-02-03T00:59:05.304Z,63.03
2019-02-03T01:01:32.438Z,63.08
2019-02-03T01:04:00.876Z,63.49
2019-02-03T01:06:28.380Z,63.62
2019-02-03T01:08:57.010Z,63.51
2019-02-03T01:11:25.270Z,63.46
2019-02-03T01:13:53.385Z,63.13
2019-02-03T01:16:20.374Z,62.65
2019-02-03T01:18:48.328Z,62.65
2019-02-03T01:21:16.019Z,62.49
2019-02-03T01:23:43.808Z,62.89
2019-02-03T01:26:12.009Z,62.97
2019-02-03T01:28:39.445Z,62.73
2019-02-03T01:31:07.015Z,62.89
2019-02-03T01:33:34.701Z,62.89
2019-02-03T01:36:01.558Z,62.51
2019-02-03T01:38:29.114Z,63.74
2019-02-03T01:40:56.668Z,63.76
2019-02-03T01:43:23.933Z,63.81
2019-02-03T01:45:52.455Z,63.61
2019-02-03T01:48:20.140Z,63.19
2019-02-03T01:50:46.878Z,63.35
2019-02-03T01:53:15.286Z,64.24
2019-02-03T01:55:43.261Z,63.78
2019-02-03T01:58:10.038Z,64.43
2019-02-03T02:00:37.623Z,64.39
2019-02-03T02:03:04.580Z,64.64
2019-02-03T02:05:33.177Z,65.14
2019-02-03T02:07:59.956Z,65.27
2019-02-03T02:10:30.396Z,64.73
2019-02-03T02:12:56.110Z,65.08
2019-02-03T02:15:23.318Z,65.35
2019-02-03T02:17:50.160Z,65.73
2019-02-03T02:20:18.191Z,65.62
2019-02-03T02:22:46.107Z,64.38
2019-02-03T02:25:15.056Z,64.77
2019-02-03T02:27:41.836Z,64.02
2019-02-03T02:30:09.402Z,64.04
2019-02-03T02:32:36.488Z,64.01
2019-02-03T02:35:04.941Z,63.85
2019-02-03T02:37:31.607Z,63.68
2019-02-03T02:42:34.030Z,63.15
2019-02-03T02:45:01.374Z,63.00
2019-02-03T02:47:29.364Z,62.63
2019-02-03T02:49:58.256Z,62.97
2019-02-03T02:52:26.150Z,63.04
2019-02-03T02:54:53.366Z,62.96
2019-02-03T02:57:20.995Z,62.90
2019-02-03T02:59:49.132Z,63.01
2019-02-03T03:02:17.005Z,62.96
2019-02-03T03:04:46.000Z,62.29
2019-02-03T03:07:14.005Z,62.39
2019-02-03T03:09:42.078Z,61.92
2019-02-03T03:12:08.752Z,62.78
2019-02-03T03:14:35.814Z,62.22
2019-02-03T03:17:02.847Z,61.87
2019-02-03T03:19:29.734Z,61.95
2019-02-03T03:21:58.424Z,62.00
2019-02-03T03:24:26.600Z,61.73
2019-02-03T03:26:54.591Z,61.59
2019-02-03T03:29:22.315Z,60.69
2019-02-03T03:31:49.982Z,61.42
2019-02-03T03:34:17.577Z,60.56
2019-02-03T03:36:45.898Z,60.89
2019-02-03T03:39:12.865Z,61.52
2019-02-03T03:41:41.081Z,61.78
2019-02-03T03:44:08.667Z,61.47
2019-02-03T03:46:35.631Z,61.62
2019-02-03T03:49:03.450Z,61.70
2019-02-03T03:51:31.927Z,61.35
2019-02-03T03:53:59.787Z,61.67
2019-02-03T03:56:27.139Z,61.81
2019-02-03T03:58:54.757Z,62.16
2019-02-03T04:01:24.354Z,62.67
2019-02-03T04:03:51.634Z,62.97
2019-02-03T04:06:18.561Z,62.71
2019-02-03T04:08:46.841Z,62.38
2019-02-03T04:11:13.991Z,62.04
2019-02-03T04:16:27.183Z,61.88
2019-02-03T04:18:54.335Z,62.24
2019-02-03T04:21:21.226Z,62.89
2019-02-03T04:23:48.424Z,63.58
2019-02-03T04:26:16.649Z,64.05
2019-02-03T04:28:43.378Z,64.22
2019-02-03T04:31:10.238Z,63.53
2019-02-03T04:33:37.270Z,63.36
2019-02-03T04:36:04.489Z,63.02
2019-02-03T04:38:31.317Z,62.65
2019-02-03T04:40:58.302Z,62.95
2019-02-03T04:43:24.997Z,63.52
2019-02-03T04:45:52.978Z,64.27
2019-02-03T04:48:20.631Z,64.25
2019-02-03T04:50:47.769Z,63.77
2019-02-03T04:53:14.553Z,63.50
2019-02-03T04:55:43.209Z,63.04
2019-02-03T04:58:09.903Z,62.28
2019-02-03T05:00:36.689Z,62.32
2019-02-03T05:03:03.742Z,62.22
2019-02-03T05:05:31.184Z,61.76
2019-02-03T05:07:57.851Z,62.05
2019-02-03T05:10:25.082Z,62.26
2019-02-03T05:12:51.878Z,62.65
2019-02-03T05:15:19.367Z,62.39
2019-02-03T05:17:47.306Z,62.10
2019-02-03T05:20:13.906Z,61.58
2019-02-03T05:22:41.024Z,61.96
2019-02-03T05:25:07.756Z,62.41
2019-02-03T05:27:34.666Z,62.35
2019-02-03T05:30:01.332Z,62.34
2019-02-03T05:32:28.490Z,62.02
2019-02-03T05:34:55.507Z,62.52
2019-02-03T05:37:22.303Z,63.34
2019-02-03T05:39:49.505Z,62.52
2019-02-03T05:42:17.669Z,62.26
2019-02-03T05:44:44.434Z,62.39
2019-02-03T05:47:12.165Z,62.58
2019-02-03T05:49:40.062Z,63.09
2019-02-03T05:52:06.670Z,63.32
2019-02-03T05:54:33.553Z,63.26
2019-02-03T05:57:01.678Z,62.93
2019-02-03T05:59:28.822Z,62.73
2019-02-03T06:01:56.050Z,62.03
2019-02-03T06:04:22.779Z,62.12
2019-02-03T06:06:49.760Z,62.95
2019-02-03T06:09:16.566Z,63.15
2019-02-03T06:11:44.376Z,63.20
2019-02-03T06:14:11.066Z,62.59
2019-02-03T06:16:37.994Z,62.65
2019-02-03T06:19:05.060Z,62.59
2019-02-03T06:21:33.148Z,61.50
2019-02-03T06:24:00.869Z,62.03
2019-02-03T06:26:27.550Z,61.84
2019-02-03T06:28:55.532Z,61.95
2019-02-03T06:31:22.496Z,61.56
2019-02-03T06:33:49.530Z,61.49
2019-02-03T06:36:16.237Z,61.59
2019-02-03T06:38:43.270Z,62.08
2019-02-03T06:41:10.489Z,62.16
2019-02-03T06:43:39.896Z,62.05
2019-02-03T06:46:08.919Z,61.64
2019-02-03T06:48:38.527Z,61.50
2019-02-03T06:51:07.191Z,61.85
2019-02-03T06:53:36.269Z,63.07
2019-02-03T06:56:04.150Z,63.79
2019-02-03T06:58:35.632Z,63.57
2019-02-03T07:01:05.341Z,62.54
2019-02-03T07:03:36.844Z,62.74
2019-02-03T07:06:05.050Z,63.03
2019-02-03T07:08:34.314Z,63.65
2019-02-03T07:11:02.250Z,63.81
2019-02-03T07:13:33.913Z,63.86
2019-02-03T07:16:01.931Z,63.36
2019-02-03T07:18:33.442Z,63.16
2019-02-03T07:21:01.158Z,62.43
2019-02-03T07:23:30.459Z,62.51
2019-02-03T07:28:44.959Z,62.66
2019-02-03T07:31:13.383Z,62.64
2019-02-03T07:33:44.911Z,63.01
2019-02-03T07:36:11.486Z,63.35
2019-02-03T07:38:41.287Z,63.15
2019-02-03T07:41:08.716Z,62.83
2019-02-03T07:43:39.544Z,62.84
2019-02-03T07:46:08.645Z,63.28
2019-02-03T07:48:36.460Z,63.79
2019-02-03T07:51:03.577Z,63.83
2019-02-03T07:53:32.975Z,63.51
2019-02-03T07:55:59.966Z,63.14
2019-02-03T07:58:29.747Z,62.85
2019-02-03T08:01:01.576Z,62.70
2019-02-03T08:03:28.581Z,62.45
2019-02-03T08:05:55.461Z,62.67
2019-02-03T08:08:23.940Z,62.45
2019-02-03T08:10:50.695Z,62.54
2019-02-03T08:13:17.318Z,62.32
2019-02-03T08:15:43.953Z,62.33
2019-02-03T08:18:10.777Z,62.86
2019-02-03T08:20:37.390Z,62.80
2019-02-03T08:23:04.092Z,62.52
2019-02-03T08:25:30.947Z,62.28
2019-02-03T08:27:57.594Z,61.80
2019-02-03T08:30:24.315Z,61.61
2019-02-03T08:32:51.035Z,61.64
2019-02-03T08:35:20.002Z,61.82
2019-02-03T08:37:46.483Z,61.78
2019-02-03T08:40:13.169Z,61.18
2019-02-03T08:42:40.325Z,60.94
2019-02-03T08:45:07.583Z,60.74
2019-02-03T08:47:34.618Z,60.60
2019-02-03T08:50:01.439Z,60.28
2019-02-03T08:52:29.043Z,59.79
2019-02-03T08:54:58.254Z,59.65
2019-02-03T08:57:26.165Z,60.01
2019-02-03T08:59:52.768Z,60.16
2019-02-03T09:02:20.912Z,60.48
2019-02-03T09:04:47.631Z,60.20
2019-02-03T09:07:14.531Z,59.68
2019-02-03T09:09:41.523Z,59.18
2019-02-03T09:12:08.742Z,58.79
2019-02-03T09:14:35.797Z,59.20
2019-02-03T09:17:03.007Z,59.06
2019-02-03T09:19:29.853Z,58.34
2019-02-03T09:21:56.733Z,58.05
2019-02-03T09:24:23.432Z,57.90
2019-02-03T09:26:51.179Z,57.66
2019-02-03T09:29:17.876Z,58.72
2019-02-03T09:31:45.019Z,58.57
2019-02-03T09:34:11.974Z,57.97
2019-02-03T09:36:39.628Z,57.81
2019-02-03T09:39:07.462Z,57.53
2019-02-03T09:41:34.192Z,57.84
2019-02-03T09:44:00.955Z,58.05
2019-02-03T09:46:27.604Z,57.48
2019-02-03T09:48:54.549Z,57.40
2019-02-03T09:51:21.828Z,56.71
2019-02-03T09:53:48.676Z,56.39
2019-02-03T09:56:15.487Z,56.29
2019-02-03T09:58:42.433Z,55.67
2019-02-03T10:01:09.625Z,55.84
2019-02-03T10:03:36.749Z,55.47
2019-02-03T10:06:03.775Z,55.86
2019-02-03T10:08:40.307Z,55.74
2019-02-03T10:11:11.260Z,55.25
2019-02-03T10:13:28.459Z,55.48
2019-02-03T10:15:55.750Z,54.77
2019-02-03T10:18:22.697Z,55.81
2019-02-03T10:20:49.606Z,56.39
2019-02-03T10:23:16.634Z,56.11
2019-02-03T10:25:43.580Z,55.80
2019-02-03T10:28:10.207Z,55.80
2019-02-03T10:30:36.772Z,55.74
2019-02-03T10:33:03.913Z,55.12
2019-02-03T10:35:30.880Z,56.06
2019-02-03T10:37:57.862Z,55.48
2019-02-03T10:40:28.563Z,55.68
2019-02-03T10:42:57.617Z,54.96
2019-02-03T10:45:25.838Z,53.98
2019-02-03T10:48:09.679Z,53.09
2019-02-03T10:50:44.283Z,53.48
2019-02-03T10:53:15.647Z,51.43
2019-02-03T10:55:43.620Z,53.34
2019-02-03T10:58:14.655Z,52.33
2019-02-03T11:00:42.369Z,51.97
2019-02-03T11:03:09.085Z,52.99
2019-02-03T11:05:36.010Z,52.48
2019-02-03T11:08:02.636Z,52.30
2019-02-03T11:10:29.393Z,52.82
2019-02-03T11:12:56.073Z,52.41
2019-02-03T11:15:22.745Z,51.47
2019-02-03T11:17:49.543Z,51.31
2019-02-03T11:20:18.243Z,50.99
2019-02-03T11:22:44.601Z,51.68
2019-02-03T11:25:11.996Z,51.62
2019-02-03T11:27:38.781Z,52.10
2019-02-03T11:30:05.549Z,51.40
2019-02-03T11:32:32.303Z,51.34
2019-02-03T11:34:58.960Z,51.41
2019-02-03T11:37:25.595Z,51.39
2019-02-03T11:39:52.831Z,50.62
2019-02-03T11:42:19.438Z,51.16
2019-02-03T11:44:46.177Z,51.52
2019-02-03T11:47:12.789Z,51.20
2019-02-03T11:49:39.624Z,51.55
2019-02-03T11:52:06.841Z,51.62
2019-02-03T11:54:33.680Z,51.41
2019-02-03T11:57:00.370Z,50.20
2019-02-03T11:59:27.015Z,50.62
2019-02-03T12:01:53.932Z,51.21
2019-02-03T12:04:20.800Z,50.06
2019-02-03T12:06:47.489Z,51.19
2019-02-03T12:09:14.118Z,49.75
2019-02-03T12:11:41.415Z,50.37
2019-02-03T12:14:08.453Z,50.68
2019-02-03T12:16:35.311Z,49.13
2019-02-03T12:19:02.099Z,50.23
2019-02-03T12:21:30.189Z,48.44
2019-02-03T12:23:57.384Z,48.75
2019-02-03T12:26:24.151Z,49.12
2019-02-03T12:28:50.852Z,49.14
2019-02-03T12:31:17.589Z,48.60
2019-02-03T12:33:44.596Z,48.64
2019-02-03T12:36:11.639Z,48.08
2019-02-03T12:38:38.325Z,48.98
2019-02-03T12:41:07.582Z,49.08
2019-02-03T12:43:37.713Z,48.04
2019-02-03T12:46:04.627Z,48.58
2019-02-03T12:48:47.036Z,48.42
2019-02-03T12:51:14.577Z,48.88
2019-02-03T12:53:44.919Z,48.65
2019-02-03T12:56:16.145Z,48.37
2019-02-03T12:58:43.851Z,48.34
2019-02-03T13:01:14.683Z,48.18
2019-02-03T13:03:42.792Z,48.74
2019-02-03T13:06:10.818Z,48.02
2019-02-03T13:08:42.373Z,49.12
2019-02-03T13:11:12.022Z,48.24
2019-02-03T13:13:41.881Z,48.63
2019-02-03T13:16:10.113Z,49.66
2019-02-03T13:18:39.756Z,49.27
2019-02-03T13:21:13.398Z,49.52
2019-02-03T13:23:44.912Z,49.60
2019-02-03T13:26:13.151Z,49.36
2019-02-03T13:28:43.273Z,49.26
2019-02-03T13:31:14.324Z,49.75
2019-02-03T13:33:45.782Z,49.66
2019-02-03T13:36:20.419Z,49.28
2019-02-03T13:38:48.896Z,49.93
2019-02-03T13:41:18.276Z,51.24
2019-02-03T13:43:47.793Z,51.72
2019-02-03T13:46:15.715Z,51.74
2019-02-03T13:48:42.961Z,52.06
2019-02-03T13:51:12.470Z,51.57
2019-02-03T13:56:30.187Z,50.82
2019-02-03T13:58:59.926Z,50.89
2019-02-03T14:01:26.731Z,50.45
2019-02-03T14:03:54.863Z,50.42
2019-02-03T14:06:21.582Z,50.10
2019-02-03T14:08:48.302Z,50.25
2019-02-03T14:11:14.980Z,50.17
2019-02-03T14:13:41.835Z,50.38
2019-02-03T14:16:08.821Z,50.25
2019-02-03T14:18:35.796Z,50.63
2019-02-03T14:21:02.608Z,49.77
2019-02-03T14:23:29.287Z,48.99
2019-02-03T14:25:55.985Z,49.39
2019-02-03T14:28:22.893Z,49.68
2019-02-03T14:30:51.330Z,49.71
2019-02-03T14:33:18.077Z,50.57
2019-02-03T14:35:45.105Z,50.02
2019-02-03T14:38:12.060Z,49.15
2019-02-03T14:40:39.695Z,49.60
2019-02-03T14:43:06.297Z,51.23
2019-02-03T14:45:33.232Z,50.48
2019-02-03T14:48:00.225Z,50.29
2019-02-03T14:50:27.493Z,50.52
2019-02-03T14:52:58.296Z,50.19
2019-02-03T14:55:25.653Z,50.59
2019-02-03T14:57:52.390Z,50.67
2019-02-03T15:00:31.176Z,51.06
2019-02-03T15:02:57.821Z,51.98
2019-02-03T15:05:25.788Z,51.95
2019-02-03T15:07:52.472Z,52.34
2019-02-03T15:10:19.391Z,52.48
2019-02-03T15:12:45.991Z,52.88
2019-02-03T15:15:12.849Z,52.81
2019-02-03T15:17:39.754Z,52.55
2019-02-03T15:20:06.690Z,53.25
2019-02-03T15:22:34.843Z,52.78
2019-02-03T15:25:01.800Z,53.24
2019-02-03T15:27:28.727Z,53.45
2019-02-03T15:29:56.100Z,54.17
2019-02-03T15:32:23.715Z,53.54
2019-02-03T15:34:50.399Z,52.92
2019-02-03T15:37:17.290Z,52.29
2019-02-03T15:39:44.038Z,51.65
2019-02-03T15:42:10.677Z,53.09
2019-02-03T15:44:37.353Z,52.78
2019-02-03T15:47:04.140Z,52.03
2019-02-03T15:49:31.021Z,51.69
2019-02-03T15:51:57.647Z,52.26
2019-02-03T15:54:25.821Z,53.68
2019-02-03T15:56:52.436Z,53.50
2019-02-03T15:59:19.367Z,53.39
2019-02-03T16:01:45.962Z,52.69
2019-02-03T16:04:12.640Z,52.78
2019-02-03T16:06:39.555Z,52.60
2019-02-03T16:09:06.353Z,52.88
2019-02-03T16:11:33.466Z,52.81
2019-02-03T16:14:00.104Z,51.06
2019-02-03T16:16:27.121Z,50.85
2019-02-03T16:18:53.705Z,50.82
2019-02-03T16:21:20.497Z,49.82
2019-02-03T16:23:47.173Z,50.83
2019-02-03T16:26:13.985Z,51.46
2019-02-03T16:28:40.952Z,51.17
2019-02-03T16:31:16.169Z,50.44
2019-02-03T16:33:43.925Z,49.74
2019-02-03T16:36:10.631Z,49.87
2019-02-03T16:38:37.307Z,48.94
2019-02-03T16:41:08.121Z,49.13
2019-02-03T16:43:48.695Z,49.27
2019-02-03T16:46:07.846Z,49.17
2019-02-03T16:48:36.613Z,48.50
2019-02-03T16:51:05.298Z,48.30
2019-02-03T16:53:34.238Z,47.86
2019-02-03T16:56:00.839Z,47.06
2019-02-03T16:58:28.877Z,47.83
2019-02-03T17:00:59.369Z,47.55
2019-02-03T17:03:30.789Z,47.23
2019-02-03T17:05:59.516Z,47.03
2019-02-03T17:08:44.009Z,48.26
2019-02-03T17:11:11.638Z,47.95
2019-02-03T17:13:39.472Z,47.43
2019-02-03T17:16:07.123Z,47.52
2019-02-03T17:18:38.167Z,47.99
2019-02-03T17:21:13.030Z,47.71
2019-02-03T17:23:38.010Z,47.16
2019-02-03T17:26:05.994Z,47.24
2019-02-03T17:28:33.681Z,46.44
2019-02-03T17:31:02.587Z,46.73
2019-02-03T17:33:30.016Z,46.58
2019-02-03T17:35:57.544Z,47.21
2019-02-03T17:38:26.363Z,46.19
2019-02-03T17:40:53.091Z,46.61
2019-02-03T17:43:24.838Z,46.56
2019-02-03T17:45:59.611Z,46.24
2019-02-03T17:48:35.024Z,45.83
2019-02-03T17:51:02.451Z,46.64
2019-02-03T17:53:29.524Z,45.30
2019-02-03T17:55:56.187Z,46.03
2019-02-03T17:58:27.886Z,45.92
2019-02-03T18:00:55.592Z,45.74
2019-02-03T18:03:24.964Z,45.77
2019-02-03T18:06:05.546Z,45.82
2019-02-03T18:08:27.005Z,45.97
2019-02-03T18:13:41.806Z,44.85
2019-02-03T18:16:08.753Z,45.00
2019-02-03T18:18:37.442Z,45.04
2019-02-03T18:21:05.158Z,44.53
2019-02-03T18:26:19.624Z,45.38
2019-02-03T18:28:49.700Z,45.15
2019-02-03T18:31:18.097Z,44.21
2019-02-03T18:33:48.887Z,44.53
2019-02-03T18:36:28.673Z,43.59
2019-02-03T18:38:47.541Z,44.43
2019-02-03T18:41:15.072Z,44.35
2019-02-03T18:43:41.994Z,43.10
2019-02-03T18:46:08.887Z,42.83
2019-02-03T18:48:36.977Z,44.01
2019-02-03T18:51:06.334Z,44.14
2019-02-03T18:53:33.200Z,43.31
2019-02-03T18:56:03.053Z,42.76
2019-02-03T18:58:30.416Z,42.98
2019-02-03T19:00:57.121Z,42.62
2019-02-03T19:03:24.255Z,43.38
2019-02-03T19:05:52.422Z,43.51
2019-02-03T19:08:19.210Z,43.33
2019-02-03T19:10:46.444Z,43.13
2019-02-03T19:13:13.342Z,43.26
2019-02-03T19:15:40.429Z,43.46
2019-02-03T19:18:07.211Z,43.36
2019-02-03T19:20:33.890Z,43.66
2019-02-03T19:23:00.662Z,43.52
2019-02-03T19:25:27.361Z,43.91
2019-02-03T19:27:54.121Z,43.67
2019-02-03T19:30:22.011Z,43.56
2019-02-03T19:32:51.566Z,43.76
2019-02-03T19:35:17.563Z,43.37
2019-02-03T19:38:02.062Z,43.14
2019-02-03T19:40:28.849Z,43.33
2019-02-03T19:42:55.756Z,43.81
2019-02-03T19:45:23.087Z,42.53
2019-02-03T19:47:49.738Z,43.85
2019-02-03T19:50:16.728Z,43.83
2019-02-03T19:52:48.008Z,43.47
2019-02-03T19:55:14.941Z,43.50
2019-02-03T19:57:41.904Z,43.40
2019-02-03T20:00:09.203Z,42.90
2019-02-03T20:02:35.923Z,43.19
2019-02-03T20:05:03.399Z,43.16
2019-02-03T20:07:30.264Z,42.77
2019-02-03T20:09:57.019Z,42.79
2019-02-03T20:12:27.069Z,43.62
2019-02-03T20:14:53.742Z,44.21
2019-02-03T20:17:20.387Z,43.54
2019-02-03T20:19:47.218Z,43.22
2019-02-03T20:22:14.562Z,42.69
2019-02-03T20:24:41.431Z,42.83
2019-02-03T20:27:08.385Z,42.89
2019-02-03T20:29:35.664Z,42.83
2019-02-03T20:32:02.542Z,42.94
2019-02-03T20:34:29.542Z,41.95
2019-02-03T20:36:56.493Z,43.00
2019-02-03T20:39:24.340Z,42.38
2019-02-03T20:41:56.360Z,42.59
2019-02-03T20:44:32.313Z,42.82
2019-02-03T20:46:59.426Z,42.72
2019-02-03T20:49:31.599Z,41.89
2019-02-03T20:51:59.222Z,41.64
2019-02-03T20:54:28.631Z,42.14
2019-02-03T20:56:59.512Z,42.16
2019-02-03T20:59:26.382Z,40.72
2019-02-03T21:01:54.267Z,41.85
2019-02-03T21:04:21.547Z,41.43
2019-02-03T21:06:48.439Z,40.82
2019-02-03T21:09:15.123Z,41.56
2019-02-03T21:11:41.856Z,42.04
2019-02-03T21:14:09.787Z,41.42
2019-02-03T21:16:36.655Z,41.32
2019-02-03T21:19:03.494Z,41.25
2019-02-03T21:21:31.893Z,41.83
2019-02-03T21:23:58.684Z,42.18
2019-02-03T21:26:25.724Z,42.32
2019-02-03T21:28:52.427Z,42.23
2019-02-03T21:31:19.349Z,41.96
2019-02-03T21:33:46.356Z,41.72
2019-02-03T21:36:13.303Z,41.03
2019-02-03T21:38:40.576Z,40.66
2019-02-03T21:41:07.311Z,41.83
2019-02-03T21:43:34.629Z,41.46
2019-02-03T21:46:02.905Z,41.22
2019-02-03T21:48:29.930Z,41.20
2019-02-03T21:50:56.737Z,41.30
2019-02-03T21:53:23.555Z,41.37
2019-02-03T21:55:50.626Z,41.26
2019-02-03T21:58:17.741Z,40.54
2019-02-03T22:00:44.887Z,40.62
2019-02-03T22:03:11.611Z,41.13
2019-02-03T22:05:39.247Z,41.67
2019-02-03T22:08:06.191Z,40.68
2019-02-03T22:10:33.126Z,41.15
2019-02-03T22:13:03.014Z,41.12
2019-02-03T22:15:28.795Z,41.27
2019-02-03T22:17:55.868Z,41.18
2019-02-03T22:20:22.923Z,41.16
2019-02-03T22:22:49.999Z,41.18
2019-02-03T22:25:16.991Z,40.60
2019-02-03T22:27:43.936Z,41.18
2019-02-03T22:30:10.760Z,40.80
2019-02-03T22:32:37.552Z,40.57
2019-02-03T22:35:04.483Z,40.96
2019-02-03T22:37:31.202Z,40.25
2019-02-03T22:39:58.469Z,40.80
2019-02-03T22:42:25.348Z,40.58
2019-02-03T22:44:52.384Z,40.24
2019-02-03T22:47:19.077Z,40.33
2019-02-03T22:49:45.943Z,40.90
2019-02-03T22:52:16.541Z,40.49
2019-02-03T22:57:31.696Z,40.63
2019-02-03T23:00:10.006Z,40.62
2019-02-03T23:02:44.636Z,40.53
2019-02-03T23:05:11.695Z,39.23
2019-02-03T23:07:42.727Z,40.21
2019-02-03T23:10:12.674Z,40.05
2019-02-03T23:12:45.392Z,40.27
2019-02-03T23:15:13.988Z,40.62
2019-02-03T23:17:44.392Z,40.72
2019-02-03T23:20:15.404Z,40.10
2019-02-03T23:22:45.364Z,39.96
2019-02-03T23:25:16.210Z,40.71
2019-02-03T23:27:46.989Z,40.32
2019-02-03T23:30:14.960Z,40.42
2019-02-03T23:32:42.642Z,39.86
2019-02-03T23:35:12.849Z,40.79
2019-02-03T23:37:43.980Z,40.29
2019-02-03T23:40:11.725Z,40.71
2019-02-03T23:42:39.427Z,40.58
2019-02-03T23:45:08.455Z,39.27
2019-02-03T23:47:36.892Z,40.08
2019-02-03T23:50:08.240Z,39.53
2019-02-03T23:52:39.229Z,39.86
2019-02-03T23:55:10.542Z,39.32
2019-02-03T23:57:38.419Z,39.26
